| Date | Time | Temp. (oF) | Dew Point (oF) | Rel. Hum. (%) | Press. (in.) | Wind Dir. (deg.) | Wind Speed (mph) | Hourly Rainfall (in.) |
|
|---|---|---|---|---|---|---|---|---|---|
| 1 | 12/01 | 24:00 | 53 | 47 | 83 | 30.06 | 290 | 2 | 0.00 |
| 2 | 11/30 | 23:00 | 47 | 42 | 83 | 30.08 | 150 | 1 | 0.00 |
| 3 | 11/30 | 22:00 | 46 | 40 | 81 | 30.10 | 150 | 0 | 0.00 |
| 4 | 11/30 | 21:00 | 46 | 39 | 78 | 30.11 | 150 | 0 | 0.00 |
| 5 | 11/30 | 20:00 | 47 | 40 | 77 | 30.12 | 150 | 0 | 0.00 |
| 6 | 11/30 | 19:00 | 49 | 41 | 76 | 30.13 | 150 | 0 | 0.00 |
| 7 | 11/30 | 18:00 | 52 | 43 | 73 | 30.17 | 150 | 0 | 0.00 |
| 8 | 11/30 | 17:00 | 55 | 44 | 68 | 30.16 | 150 | 0 | 0.00 |
| 9 | 11/30 | 16:00 | 58 | 46 | 65 | 30.19 | 150 | 1 | 0.00 |
| 10 | 11/30 | 15:00 | 59 | 48 | 67 | 30.20 | 160 | 2 | 0.00 |
| 11 | 11/30 | 14:00 | 57 | 46 | 69 | 30.19 | 100 | 1 | 0.00 |
| 12 | 11/30 | 13:00 | 56 | 47 | 73 | 30.19 | 100 | 1 | 0.00 |
| 13 | 11/30 | 12:00 | 54 | 46 | 75 | 30.25 | 100 | 2 | 0.00 |
| 14 | 11/30 | 11:00 | 52 | 45 | 77 | 30.33 | 100 | 1 | 0.00 |
| 15 | 11/30 | 10:00 | 50 | 44 | 82 | 30.32 | 110 | 0 | 0.00 |
| 16 | 11/30 | 09:00 | 47 | 41 | 81 | 30.29 | 110 | 0 | 0.00 |
| 17 | 11/30 | 08:00 | 44 | 38 | 81 | 30.27 | 110 | 0 | 0.00 |
| 18 | 11/30 | 07:00 | 44 | 38 | 80 | 30.26 | 110 | 0 | 0.00 |
| 19 | 11/30 | 06:00 | 44 | 38 | 80 | 30.23 | 110 | 1 | 0.00 |
| 20 | 11/30 | 05:00 | 44 | 37 | 78 | 30.23 | 110 | 0 | 0.00 |
| 21 | 11/30 | 04:00 | 45 | 37 | 76 | 30.24 | 110 | 0 | 0.00 |
| 22 | 11/30 | 03:00 | 47 | 39 | 74 | 30.25 | 110 | 0 | 0.00 |
| 23 | 11/30 | 02:00 | 48 | 40 | 74 | 30.26 | 110 | 1 | 0.00 |
| 24 | 11/30 | 01:00 | 48 | 40 | 74 | 30.26 | 110 | 0 | 0.00 |